Time;durP1;ratioP1;P1;durP2;ratioP2;P2;SDS_P1;SDS_P2;PMS_P1;PMS_P2;Temp;Humidity;BMP_temperature;BMP_pressure;BME280_temperature;BME280_humidity;BME280_pressure;Samples;Min_cycle;Max_cycle;Signal;HPM_P1;HPM_P2
2023/04/12 00:02:03;;;;;;;13.30;7.30;;;;;;;11.41;66.30;98617.83;107501;1258;60534;-37
2023/04/12 00:04:33;;;;;;;8.20;5.30;;;;;;;11.36;66.72;98618.13;107471;1254;75088;-37
2023/04/12 00:07:02;;;;;;;8.60;6.70;;;;;;;11.32;66.98;98609.43;107417;1254;69122;-38
2023/04/12 00:09:35;;;;;;;9.40;6.60;;;;;;;11.30;67.28;98607.39;107346;1259;73966;-37
2023/04/12 00:12:05;;;;;;;11.50;6.50;;;;;;;11.34;67.24;98599.89;107493;1254;61805;-36
2023/04/12 00:14:34;;;;;;;11.90;6.20;;;;;;;11.38;67.30;98598.27;107381;1257;61498;-37
2023/04/12 00:17:03;;;;;;;9.30;6.60;;;;;;;11.37;67.42;98593.08;107416;1254;74870;-37
2023/04/12 00:19:32;;;;;;;10.40;6.80;;;;;;;11.35;67.70;98588.50;107362;1256;68143;-37
2023/04/12 00:22:03;;;;;;;9.90;6.50;;;;;;;11.33;67.96;98582.98;107331;1254;72722;-36
2023/04/12 00:24:32;;;;;;;11.60;6.70;;;;;;;11.30;68.13;98576.69;107449;1254;61359;-37
2023/04/12 00:27:01;;;;;;;11.50;7.40;;;;;;;11.26;68.25;98576.61;107476;1254;61397;-37
2023/04/12 00:29:36;;;;;;;12.90;6.00;;;;;;;11.17;68.46;98574.63;107430;1254;74939;-36
2023/04/12 00:32:05;;;;;;;10.00;6.60;;;;;;;11.15;68.57;98577.02;107497;1254;68917;-37
2023/04/12 00:34:34;;;;;;;10.50;6.30;;;;;;;11.11;68.87;98565.92;107486;1254;73477;-36
2023/04/12 00:37:03;;;;;;;12.60;7.10;;;;;;;11.16;69.22;98572.07;107503;1254;61820;-35
2023/04/12 00:39:32;;;;;;;12.90;7.30;;;;;;;11.14;69.35;98570.27;107483;1254;61515;-37
2023/04/12 00:42:07;;;;;;;10.90;7.50;;;;;;;11.12;69.41;98562.91;107452;1254;74609;-37
2023/04/12 00:44:36;;;;;;;12.40;7.30;;;;;;;11.07;69.51;98563.05;107535;1254;69058;-36
2023/04/12 00:47:05;;;;;;;11.70;6.90;;;;;;;10.97;69.70;98553.79;107490;1254;73888;-36
2023/04/12 00:49:36;;;;;;;8.60;6.60;;;;;;;11.03;69.85;98559.85;107502;1257;61684;-37
2023/04/12 00:52:07;;;;;;;10.40;6.70;;;;;;;11.05;70.13;98558.08;107440;1254;61560;-37
2023/04/12 00:54:41;;;;;;;13.00;7.70;;;;;;;11.06;70.12;98555.91;107432;1254;74023;-37
2023/04/12 00:57:12;;;;;;;11.50;7.00;;;;;;;11.05;70.37;98554.90;107433;1254;68920;-37
2023/04/12 00:59:40;;;;;;;11.20;7.20;;;;;;;11.04;70.38;98552.04;107420;1254;73670;-36
2023/04/12 01:02:09;;;;;;;11.20;7.40;;;;;;;11.05;70.46;98551.41;107464;1254;60643;-37
2023/04/12 01:04:42;;;;;;;9.90;6.30;;;;;;;11.03;70.52;98553.56;107442;1257;60409;-37
2023/04/12 01:07:18;;;;;;;11.60;6.90;;;;;;;11.06;70.63;98553.51;107492;1254;74662;-37
2023/04/12 01:10:07;;;;;;;12.70;7.70;;;;;;;11.08;70.63;98553.67;107450;1258;69147;-36
2023/04/12 01:12:56;;;;;;;11.60;7.50;;;;;;;11.04;70.84;98553.95;107474;1254;74016;-37
2023/04/12 01:15:25;;;;;;;13.10;7.60;;;;;;;10.97;70.94;98550.54;107541;1254;61421;-37
2023/04/12 01:18:04;;;;;;;13.50;8.30;;;;;;;10.92;71.05;98546.63;107522;1254;60315;-37
2023/04/12 01:20:38;;;;;;;12.90;8.10;;;;;;;10.85;70.98;98541.48;107518;1254;75174;-37
2023/04/12 01:23:28;;;;;;;9.60;6.80;;;;;;;10.78;70.92;98538.67;107516;1254;69145;-37
2023/04/12 01:26:10;;;;;;;;;;;;;;;10.75;71.12;98533.92;107493;1254;74182;-37
2023/04/12 01:28:41;;;;;;;9.80;7.30;;;;;;;10.61;71.63;98531.30;107511;1254;61335;-37
2023/04/12 01:31:11;;;;;;;12.70;8.10;;;;;;;10.52;72.15;98525.13;107518;1254;61536;-37
2023/04/12 01:33:40;;;;;;;14.60;8.10;;;;;;;10.48;72.30;98524.05;107472;1253;75042;-37
2023/04/12 01:36:17;;;;;;;15.10;7.30;;;;;;;10.42;72.70;98519.42;107438;1254;69128;-37
2023/04/12 01:38:45;;;;;;;15.90;7.60;;;;;;;10.40;73.03;98513.38;107541;1254;73897;-37
2023/04/12 01:41:14;;;;;;;16.00;9.00;;;;;;;10.39;73.18;98512.29;107367;1254;60974;-37
2023/04/12 01:43:45;;;;;;;11.90;8.70;;;;;;;10.36;73.52;98505.92;107399;1253;61241;-37
2023/04/12 01:46:15;;;;;;;14.00;8.80;;;;;;;10.33;73.63;98501.56;107516;1254;74899;-37
2023/04/12 01:48:48;;;;;;;16.20;8.10;;;;;;;10.28;73.82;98493.25;107580;1254;66637;-37
2023/04/12 01:51:35;;;;;;;14.50;7.40;;;;;;;10.26;73.87;98491.85;107428;1254;74303;-37
2023/04/12 01:54:12;;;;;;;11.70;8.70;;;;;;;10.32;73.98;98489.55;107517;1254;60511;-38
2023/04/12 01:56:45;;;;;;;15.60;8.80;;;;;;;10.28;73.79;98481.49;107507;1254;60457;-37
2023/04/12 01:59:15;;;;;;;14.00;9.50;;;;;;;10.21;74.13;98481.92;107497;1254;74938;-37
2023/04/12 02:01:45;;;;;;;15.20;9.10;;;;;;;10.19;74.62;98482.67;107433;1254;68317;-37
2023/04/12 02:04:15;;;;;;;14.70;8.30;;;;;;;10.20;74.64;98479.27;107544;1254;73803;-37
2023/04/12 02:06:45;;;;;;;13.80;9.30;;;;;;;10.23;74.49;98474.56;107456;1254;61981;-37
2023/04/12 02:09:15;;;;;;;13.70;9.40;;;;;;;10.21;74.58;98471.71;107583;1254;60853;-37
2023/04/12 02:14:50;;;;;;;12.50;9.90;;;;;;;10.10;75.22;98462.48;104191;1292;600361;-37
2023/04/12 02:17:24;;;;;;;14.10;8.60;;;;;;;10.04;75.11;98460.58;106733;1267;63449;-37
2023/04/12 02:19:54;;;;;;;10.90;8.10;;;;;;;10.04;75.28;98459.42;106584;1267;60059;-37
2023/04/12 02:22:23;;;;;;;15.60;9.30;;;;;;;10.08;75.40;98456.02;107367;1258;71381;-37
2023/04/12 02:24:53;;;;;;;13.20;9.30;;;;;;;10.07;75.34;98453.94;107465;1254;69184;-37
2023/04/12 02:27:22;;;;;;;12.40;9.40;;;;;;;10.02;75.47;98452.20;107280;1254;174320;-37
2023/04/12 02:29:50;;;;;;;14.20;8.80;;;;;;;9.98;75.64;98451.64;107560;1254;61559;-37
2023/04/12 02:32:19;;;;;;;15.80;9.10;;;;;;;9.95;75.77;98447.83;107624;1253;60696;-37
2023/04/12 02:34:50;;;;;;;9.80;7.40;;;;;;;9.95;75.56;98449.08;107717;1254;73017;-36
2023/04/12 02:37:29;;;;;;;15.40;10.00;;;;;;;9.90;75.94;98444.64;107656;1254;68790;-36
2023/04/12 02:40:01;;;;;;;13.70;10.10;;;;;;;9.83;76.24;98443.64;107646;1253;73390;-36
2023/04/12 02:42:31;;;;;;;14.10;9.80;;;;;;;9.79;76.47;98443.46;107545;1254;61787;-36
2023/04/12 02:45:00;;;;;;;14.50;9.80;;;;;;;9.76;76.71;98442.83;107576;1254;61155;-36
2023/04/12 02:47:31;;;;;;;13.70;9.70;;;;;;;9.80;76.77;98440.15;107695;1255;72473;-37
2023/04/12 02:50:00;;;;;;;13.60;10.30;;;;;;;9.80;76.95;98437.27;107649;1257;68903;-36
2023/04/12 02:52:31;;;;;;;16.00;11.00;;;;;;;9.79;77.36;98431.88;107680;1254;72778;-36
2023/04/12 02:55:06;;;;;;;17.20;11.10;;;;;;;9.77;77.17;98431.23;107665;1254;61193;-36
2023/04/12 02:57:35;;;;;;;21.50;10.20;;;;;;;9.73;77.30;98428.57;107665;1252;61221;-36
2023/04/12 03:00:15;;;;;;;13.00;9.70;;;;;;;9.75;77.31;98428.20;107600;1256;73158;-37
2023/04/12 03:02:50;;;;;;;15.80;10.70;;;;;;;9.76;77.19;98427.98;107678;1257;68772;-36
2023/04/12 03:05:27;;;;;;;15.60;10.50;;;;;;;9.73;77.57;98424.79;107715;1254;72632;-36
2023/04/12 03:07:57;;;;;;;13.70;10.20;;;;;;;9.71;77.60;98423.69;107629;1253;60046;-36
2023/04/12 03:10:32;;;;;;;17.00;10.20;;;;;;;9.68;77.80;98424.15;107587;1254;61236;-36
2023/04/12 03:13:03;;;;;;;16.00;9.70;;;;;;;9.73;77.79;98423.55;107642;1257;72988;-36
2023/04/12 03:15:57;;;;;;;15.20;9.50;;;;;;;9.74;77.94;98420.77;107603;1254;69106;-37
2023/04/12 03:18:33;;;;;;;15.50;10.60;;;;;;;9.65;78.33;98418.46;107543;1254;73650;-36
2023/04/12 03:21:02;;;;;;;15.90;9.60;;;;;;;9.59;78.51;98413.77;107649;1257;61468;-36
2023/04/12 03:23:32;;;;;;;11.90;9.00;;;;;;;9.57;78.45;98412.69;107635;1254;61319;-36
2023/04/12 03:26:13;;;;;;;13.30;9.10;;;;;;;9.63;78.81;98417.14;107662;1254;74219;-36
2023/04/12 03:29:00;;;;;;;14.30;9.80;;;;;;;9.64;78.90;98412.58;107670;1255;68730;-37
2023/04/12 03:31:30;;;;;;;13.20;10.30;;;;;;;9.62;78.90;98408.40;107609;1254;73769;-36
2023/04/12 03:34:03;;;;;;;12.40;8.80;;;;;;;9.60;78.87;98404.35;107587;1254;63393;-36
2023/04/12 03:36:33;;;;;;;15.30;9.10;;;;;;;9.63;78.93;98405.08;107629;1254;61149;-36
2023/04/12 03:39:12;;;;;;;10.50;9.00;;;;;;;9.67;78.80;98403.18;107626;1257;73802;-36
2023/04/12 03:41:42;;;;;;;15.10;9.50;;;;;;;9.67;78.93;98404.58;107574;1252;69087;-36
2023/04/12 03:44:11;;;;;;;12.90;10.50;;;;;;;9.66;79.05;98402.02;107673;1256;73793;-36
2023/04/12 03:46:40;;;;;;;14.00;9.40;;;;;;;9.65;79.01;98401.30;107700;1257;62893;-37
2023/04/12 03:49:11;;;;;;;;;;;;;;;9.67;78.96;98401.08;107667;1254;62227;-36
2023/04/12 03:51:42;;;;;;;16.40;9.70;;;;;;;9.63;79.21;98404.77;107707;1256;72708;-36
2023/04/12 03:54:12;;;;;;;12.90;9.60;;;;;;;9.59;79.61;98403.04;107636;1254;68980;-37
2023/04/12 03:56:51;;;;;;;12.30;9.30;;;;;;;9.61;79.58;98406.14;107593;1254;73751;-36
2023/04/12 03:59:24;;;;;;;12.30;8.20;;;;;;;9.55;79.44;98402.09;107725;1256;63262;-36
2023/04/12 04:01:55;;;;;;;13.40;9.10;;;;;;;9.58;79.54;98405.18;107630;1254;61340;-36
2023/04/12 04:04:24;;;;;;;14.60;9.30;;;;;;;9.62;79.71;98403.75;107531;1254;74266;-36
2023/04/12 04:06:58;;;;;;;13.50;9.40;;;;;;;9.64;79.87;98404.00;107543;1255;69114;-37
2023/04/12 04:09:28;;;;;;;;;;;;;;;9.65;80.05;98402.23;107683;1254;73575;-37
2023/04/12 04:11:57;;;;;;;11.40;8.70;;;;;;;9.64;80.04;98397.97;107603;1254;63054;-37
2023/04/12 04:14:26;;;;;;;12.30;8.90;;;;;;;9.66;79.91;98401.08;107730;1254;59882;-36
2023/04/12 04:16:55;;;;;;;12.40;9.30;;;;;;;9.68;79.73;98402.41;107655;1254;74310;-36
2023/04/12 04:19:27;;;;;;;11.00;8.90;;;;;;;9.64;79.89;98399.13;107619;1254;69126;-37
2023/04/12 04:21:56;;;;;;;12.70;9.60;;;;;;;9.64;80.01;98397.42;107634;1254;73671;-36
2023/04/12 04:24:26;;;;;;;;;;;;;;;9.61;80.00;98399.41;107626;1252;64466;-37
2023/04/12 04:26:57;;;;;;;10.80;8.70;;;;;;;9.60;80.10;98396.55;107550;1254;61015;-36
2023/04/12 04:29:28;;;;;;;13.40;9.40;;;;;;;9.59;80.19;98397.08;107659;1257;73992;-37
2023/04/12 04:31:57;;;;;;;11.30;9.20;;;;;;;9.57;80.32;98399.94;107658;1257;69086;-36
2023/04/12 04:34:26;;;;;;;14.30;9.60;;;;;;;9.54;80.49;98394.65;107732;1255;73862;-36
2023/04/12 04:37:00;;;;;;;13.20;8.40;;;;;;;9.53;80.56;98396.89;107675;1254;62985;-38
2023/04/12 04:39:29;;;;;;;12.90;9.10;;;;;;;9.59;80.62;98391.59;107695;1254;60559;-37
2023/04/12 04:41:59;;;;;;;13.50;10.10;;;;;;;9.66;80.32;98395.12;107687;1252;73870;-37
2023/04/12 04:44:39;;;;;;;14.20;9.80;;;;;;;9.67;80.08;98397.07;107667;1252;68020;-37
2023/04/12 04:47:09;;;;;;;11.80;9.10;;;;;;;9.61;80.22;98394.70;107643;1256;73584;-37
2023/04/12 04:49:38;;;;;;;10.20;8.40;;;;;;;9.60;80.21;98395.85;107642;1257;61995;-37
2023/04/12 04:52:26;;;;;;;13.00;9.30;;;;;;;9.65;80.03;98393.64;107625;1254;60378;-37
2023/04/12 04:54:59;;;;;;;13.00;9.60;;;;;;;9.63;80.06;98392.70;107727;1254;74385;-37
2023/04/12 04:57:37;;;;;;;14.60;9.60;;;;;;;9.62;80.20;98396.17;107453;1254;69155;-37
2023/04/12 05:00:10;;;;;;;11.10;8.80;;;;;;;9.59;80.34;98394.14;107453;1259;73801;-37
2023/04/12 05:02:41;;;;;;;9.90;8.40;;;;;;;9.62;80.30;98395.17;107367;1259;59593;-37
2023/04/12 05:05:12;;;;;;;13.70;9.60;;;;;;;9.61;80.28;98395.48;107315;1260;60948;-37
2023/04/12 05:07:44;;;;;;;11.40;8.90;;;;;;;9.62;80.50;98397.41;107368;1254;73395;-37
2023/04/12 05:10:13;;;;;;;11.50;7.80;;;;;;;9.65;80.57;98395.13;106602;1254;1003827;-37
2023/04/12 05:12:42;;;;;;;12.50;8.50;;;;;;;9.72;80.18;98395.63;107485;1254;71975;-37
2023/04/12 05:15:14;;;;;;;13.50;8.50;;;;;;;9.77;80.01;98388.39;107444;1254;60389;-37
2023/04/12 05:17:43;;;;;;;13.80;9.00;;;;;;;9.80;79.98;98389.88;107436;1253;61437;-37
2023/04/12 05:20:12;;;;;;;11.30;8.80;;;;;;;9.79;79.83;98384.77;107416;1254;74342;-37
2023/04/12 05:22:40;;;;;;;12.60;8.40;;;;;;;9.73;79.74;98386.52;107429;1254;69157;-37
2023/04/12 05:25:09;;;;;;;11.90;8.20;;;;;;;9.72;79.74;98385.57;107499;1254;73828;-37
2023/04/12 05:27:46;;;;;;;10.90;8.50;;;;;;;9.73;79.91;98384.27;107451;1254;61382;-37
2023/04/12 05:30:18;;;;;;;12.60;8.50;;;;;;;9.72;80.01;98382.23;107392;1254;61958;-37
2023/04/12 05:32:47;;;;;;;11.40;7.70;;;;;;;9.68;80.11;98375.20;107477;1254;74239;-37
2023/04/12 05:35:17;;;;;;;12.20;7.40;;;;;;;9.69;80.02;98376.04;107512;1254;67921;-38
2023/04/12 05:37:46;;;;;;;7.70;6.80;;;;;;;9.72;80.23;98376.06;107479;1254;73722;-37
2023/04/12 05:40:15;;;;;;;10.60;7.60;;;;;;;9.75;80.28;98376.02;107459;1254;61289;-37
2023/04/12 05:42:44;;;;;;;9.40;7.80;;;;;;;9.77;80.29;98369.14;107506;1254;61625;-37
2023/04/12 05:45:14;;;;;;;8.80;6.70;;;;;;;9.74;80.30;98374.91;107532;1254;73916;-37
2023/04/12 05:47:44;;;;;;;9.90;7.20;;;;;;;9.75;80.34;98369.28;107530;1254;67960;-37
2023/04/12 05:50:13;;;;;;;7.70;6.90;;;;;;;9.76;80.44;98364.58;107489;1254;74091;-37
2023/04/12 05:52:43;;;;;;;8.90;7.10;;;;;;;9.75;80.60;98363.39;107521;1257;61218;-37
2023/04/12 05:55:12;;;;;;;10.30;6.20;;;;;;;9.75;80.75;98362.63;107499;1254;61007;-37
2023/04/12 05:57:43;;;;;;;8.40;5.80;;;;;;;9.79;80.54;98359.56;107586;1254;74060;-37
2023/04/12 06:00:17;;;;;;;7.90;6.10;;;;;;;9.84;80.48;98356.48;107511;1254;67980;-37
2023/04/12 06:02:47;;;;;;;6.70;5.80;;;;;;;9.85;80.71;98354.73;107486;1254;73981;-37
2023/04/12 06:05:16;;;;;;;10.40;6.30;;;;;;;9.86;80.65;98355.20;107506;1254;61163;-37
2023/04/12 06:07:48;;;;;;;6.70;5.00;;;;;;;9.85;80.69;98349.45;107493;1254;62109;-37
2023/04/12 06:10:17;;;;;;;7.80;5.30;;;;;;;9.89;80.51;98352.58;107359;1253;74239;-37
2023/04/12 06:12:52;;;;;;;8.40;5.50;;;;;;;9.91;80.51;98351.73;107367;1254;68835;-37
2023/04/12 06:15:21;;;;;;;5.50;4.50;;;;;;;9.90;80.65;98350.10;107448;1254;73840;-37
2023/04/12 06:17:56;;;;;;;8.30;5.50;;;;;;;9.89;80.77;98349.02;107484;1253;63206;-37
2023/04/12 06:20:32;;;;;;;6.00;5.40;;;;;;;9.95;80.75;98347.58;107469;1254;61329;-37
2023/04/12 06:23:01;;;;;;;5.60;3.90;;;;;;;10.07;80.75;98348.02;107545;1255;73958;-37
2023/04/12 06:25:30;;;;;;;5.60;4.50;;;;;;;10.13;80.46;98346.73;107478;1253;69221;-37
2023/04/12 06:28:03;;;;;;;6.90;5.40;;;;;;;10.14;80.25;98344.96;107501;1257;74302;-37
2023/04/12 06:30:38;;;;;;;6.10;4.70;;;;;;;10.12;80.41;98342.32;107456;1254;60869;-37
2023/04/12 06:33:07;;;;;;;6.40;4.80;;;;;;;10.18;80.41;98342.14;107558;1254;60430;-37
2023/04/12 06:35:37;;;;;;;6.50;4.80;;;;;;;10.23;80.09;98341.92;107490;1254;73601;-37
2023/04/12 06:38:06;;;;;;;6.30;5.10;;;;;;;10.23;80.31;98337.43;107405;1254;67060;-37
2023/04/12 06:40:40;;;;;;;5.50;4.80;;;;;;;10.24;80.34;98336.90;107480;1254;73413;-37
2023/04/12 06:43:09;;;;;;;5.30;4.40;;;;;;;10.22;80.11;98337.42;107497;1254;63231;-37
2023/04/12 06:45:37;;;;;;;5.10;4.20;;;;;;;10.28;80.10;98333.52;107504;1254;60474;-37
2023/04/12 06:48:09;;;;;;;5.70;4.40;;;;;;;10.34;79.95;98329.58;107491;1254;74033;-37
2023/04/12 06:50:38;;;;;;;5.60;4.50;;;;;;;10.33;79.86;98329.11;107499;1253;69226;-37
2023/04/12 06:53:12;;;;;;;6.60;4.10;;;;;;;10.30;79.89;98325.00;107461;1254;73921;-37
2023/04/12 06:55:41;;;;;;;5.50;3.60;;;;;;;10.31;80.02;98324.16;107482;1254;63258;-37
2023/04/12 06:58:09;;;;;;;5.10;4.00;;;;;;;10.38;79.95;98324.25;107524;1253;61521;-37
2023/04/12 07:00:38;;;;;;;5.30;4.40;;;;;;;10.44;80.02;98323.95;107586;1253;73637;-37
2023/04/12 07:03:08;;;;;;;4.70;4.10;;;;;;;10.46;80.15;98325.75;107486;1254;68111;-37
2023/04/12 07:05:38;;;;;;;4.60;3.50;;;;;;;10.48;80.14;98321.34;107449;1253;73870;-38
2023/04/12 07:08:07;;;;;;;5.20;3.00;;;;;;;10.55;79.84;98320.58;107506;1253;61881;-37
2023/04/12 07:10:37;;;;;;;5.10;3.80;;;;;;;10.58;79.60;98317.18;107494;1254;61814;-37
2023/04/12 07:13:07;;;;;;;4.50;3.50;;;;;;;10.61;79.98;98318.42;107466;1254;74723;-38
2023/04/12 07:15:55;;;;;;;3.70;3.30;;;;;;;10.59;79.39;98312.98;107443;1254;69239;-37
2023/04/12 07:18:24;;;;;;;3.00;2.50;;;;;;;10.54;79.76;98312.99;107355;1254;73923;-38
2023/04/12 07:20:54;;;;;;;3.90;3.10;;;;;;;10.57;79.81;98312.14;107387;1254;61427;-37
2023/04/12 07:23:22;;;;;;;4.20;3.30;;;;;;;10.59;79.46;98312.15;107409;1254;61694;-36
2023/04/12 07:25:51;;;;;;;4.40;3.20;;;;;;;10.57;79.66;98312.98;107340;1253;74097;-36
2023/04/12 07:28:23;;;;;;;3.10;2.70;;;;;;;10.55;79.96;98310.43;107372;1253;69260;-36
2023/04/12 07:30:53;;;;;;;6.00;3.10;;;;;;;10.57;79.97;98309.98;107456;1254;73919;-36
2023/04/12 07:33:21;;;;;;;3.10;2.80;;;;;;;10.61;79.68;98307.59;107439;1254;61551;-36
2023/04/12 07:35:51;;;;;;;3.40;3.10;;;;;;;10.55;79.92;98298.90;107421;1253;60284;-37
2023/04/12 07:38:19;;;;;;;8.60;3.60;;;;;;;10.60;80.06;98309.05;107430;1254;75054;-37
2023/04/12 07:40:48;;;;;;;3.20;2.80;;;;;;;10.59;79.87;98308.05;107431;1253;69124;-36
2023/04/12 07:43:20;;;;;;;3.40;3.10;;;;;;;10.63;79.92;98305.26;107497;1253;71663;-36
2023/04/12 07:45:48;;;;;;;4.10;3.00;;;;;;;10.67;79.89;98303.17;107520;1253;60161;-37
2023/04/12 07:48:22;;;;;;;3.10;2.80;;;;;;;10.68;80.27;98304.50;107344;1253;61600;-37
2023/04/12 07:50:50;;;;;;;3.50;2.90;;;;;;;10.70;80.35;98307.36;107347;1254;74915;-37
2023/04/12 07:53:24;;;;;;;4.30;2.90;;;;;;;10.78;80.08;98305.59;107405;1254;69127;-37
2023/04/12 07:55:54;;;;;;;3.50;3.10;;;;;;;10.86;79.72;98301.89;107477;1253;73747;-36
2023/04/12 07:58:24;;;;;;;4.90;3.00;;;;;;;10.89;79.66;98301.42;107501;1254;61438;-37
2023/04/12 08:00:52;;;;;;;3.90;3.50;;;;;;;10.88;79.55;98303.98;107512;1254;61577;-36
2023/04/12 08:03:21;;;;;;;4.20;3.10;;;;;;;10.84;79.28;98306.45;107544;1253;73863;-36
2023/04/12 08:05:52;;;;;;;3.60;3.30;;;;;;;10.84;79.43;98300.27;107523;1253;69183;-36
2023/04/12 08:08:25;;;;;;;4.60;3.40;;;;;;;10.87;79.68;98299.48;107472;1257;73643;-37
2023/04/12 08:10:54;;;;;;;3.90;3.40;;;;;;;10.87;79.92;98299.01;107507;1254;61096;-37
2023/04/12 08:13:22;;;;;;;4.80;3.30;;;;;;;10.89;79.93;98300.48;107517;1254;61466;-36
2023/04/12 08:15:54;;;;;;;4.60;3.00;;;;;;;10.87;79.58;98301.11;107446;1253;75303;-36
2023/04/12 08:18:23;;;;;;;3.30;3.00;;;;;;;10.87;79.43;98295.30;107482;1253;69127;-36
2023/04/12 08:20:51;;;;;;;4.50;3.20;;;;;;;10.80;79.91;98288.70;107476;1253;73737;-36
2023/04/12 08:23:22;;;;;;;4.70;3.00;;;;;;;10.82;80.28;98294.60;107351;1253;61477;-37
2023/04/12 08:26:01;;;;;;;3.10;2.80;;;;;;;10.82;80.53;98292.35;107187;1254;60410;-36
2023/04/12 08:28:30;;;;;;;3.30;2.80;;;;;;;10.91;80.20;98289.18;107425;1254;74828;-37
2023/04/12 08:31:01;;;;;;;3.50;3.10;;;;;;;10.93;80.39;98292.35;107451;1256;69106;-36
2023/04/12 08:33:30;;;;;;;3.90;3.20;;;;;;;10.91;80.04;98287.16;107455;1254;73869;-37
2023/04/12 08:35:58;;;;;;;4.40;2.80;;;;;;;10.83;80.44;98285.77;107421;1253;63294;-37
2023/04/12 08:38:27;;;;;;;4.40;2.60;;;;;;;10.85;81.03;98286.31;107484;1253;61428;-37
2023/04/12 08:41:11;;;;;;;4.30;3.00;;;;;;;10.90;80.94;98284.91;107476;1253;75070;-36
2023/04/12 08:43:43;;;;;;;4.80;2.70;;;;;;;10.90;80.93;98284.67;107465;1254;68894;-36
2023/04/12 08:46:15;;;;;;;3.60;2.60;;;;;;;10.91;80.90;98279.64;107390;1253;72870;-36
2023/04/12 08:48:45;;;;;;;2.80;2.50;;;;;;;11.02;80.93;98278.56;107431;1253;60700;-36
2023/04/12 08:51:18;;;;;;;;;;;;;;;11.12;80.76;98276.84;107524;1254;60539;-37
2023/04/12 08:53:47;;;;;;;4.00;3.10;;;;;;;11.08;80.47;98279.71;107493;1254;75158;-36
2023/04/12 08:56:20;;;;;;;4.10;2.50;;;;;;;11.06;81.05;98275.92;107497;1253;69415;-37
2023/04/12 08:58:49;;;;;;;2.90;2.40;;;;;;;11.15;80.96;98265.45;107279;1253;73941;-36
2023/04/12 09:01:20;;;;;;;3.90;2.40;;;;;;;11.20;80.42;98265.75;107431;1253;61615;-37
2023/04/12 09:03:50;;;;;;;4.50;2.60;;;;;;;11.21;80.27;98259.87;107495;1253;60296;-37
2023/04/12 09:06:20;;;;;;;3.40;3.00;;;;;;;11.19;80.16;98257.77;107512;1254;75040;-37
2023/04/12 09:08:52;;;;;;;4.10;2.50;;;;;;;11.19;79.98;98262.89;107523;1253;69202;-37
2023/04/12 09:11:29;;;;;;;5.40;2.40;;;;;;;11.22;80.02;98263.28;107461;1253;73689;-37
2023/04/12 09:13:59;;;;;;;7.20;2.60;;;;;;;11.21;80.27;98263.27;107513;1254;61723;-37
2023/04/12 09:16:33;;;;;;;2.90;2.40;;;;;;;11.24;80.44;98260.73;107506;1257;61523;-37
2023/04/12 09:19:03;;;;;;;5.40;2.30;;;;;;;11.31;80.43;98256.05;107473;1253;75104;-37
2023/04/12 09:21:35;;;;;;;4.00;2.90;;;;;;;11.36;80.17;98255.65;107460;1253;68809;-37
2023/04/12 09:24:08;;;;;;;3.70;2.70;;;;;;;11.36;80.21;98254.88;107512;1253;73714;-37
2023/04/12 09:26:40;;;;;;;5.20;2.30;;;;;;;11.35;80.26;98254.96;107388;1254;61583;-37
2023/04/12 09:29:25;;;;;;;3.40;2.30;;;;;;;11.37;79.99;98247.20;107361;1254;61056;-37
2023/04/12 09:32:05;;;;;;;5.20;2.40;;;;;;;11.38;80.17;98254.33;107393;1254;74883;-37
2023/04/12 09:34:34;;;;;;;2.30;2.10;;;;;;;11.36;79.91;98253.73;107408;1253;69204;-37
2023/04/12 09:37:15;;;;;;;2.90;2.00;;;;;;;11.34;80.29;98251.85;107507;1253;72664;-37
2023/04/12 09:40:00;;;;;;;2.30;2.00;;;;;;;11.41;79.71;98254.10;107433;1257;61254;-37
2023/04/12 09:42:32;;;;;;;3.40;2.30;;;;;;;11.36;79.42;98251.08;107491;1258;61660;-37
2023/04/12 09:45:23;;;;;;;4.80;2.50;;;;;;;11.22;79.59;98250.79;107501;1256;75047;-37
2023/04/12 09:47:53;;;;;;;3.10;2.20;;;;;;;11.17;80.59;98248.71;107509;1254;68795;-37
2023/04/12 09:50:24;;;;;;;4.30;2.10;;;;;;;11.20;80.59;98244.83;107533;1253;72869;-37
2023/04/12 09:52:57;;;;;;;3.10;2.30;;;;;;;11.19;80.74;98245.05;107447;1253;61642;-37
2023/04/12 09:55:27;;;;;;;3.30;2.20;;;;;;;11.18;81.15;98243.90;107501;1254;60387;-37
2023/04/12 09:57:56;;;;;;;2.80;2.10;;;;;;;11.14;80.80;98243.44;107496;1253;74985;-37
2023/04/12 10:00:26;;;;;;;3.90;2.10;;;;;;;11.15;80.73;98242.73;107451;1253;69095;-41
2023/04/12 10:02:55;;;;;;;4.40;2.50;;;;;;;11.14;81.07;98243.98;107492;1253;73811;-37
2023/04/12 10:05:24;;;;;;;2.00;1.80;;;;;;;11.12;81.16;98243.38;107437;1253;63259;-37
2023/04/12 10:07:57;;;;;;;2.30;2.00;;;;;;;11.13;81.00;98243.14;107542;1253;60338;-37
2023/04/12 10:10:29;;;;;;;4.00;2.50;;;;;;;11.14;81.09;98239.88;107474;1253;74563;-37
2023/04/12 10:12:58;;;;;;;3.40;2.30;;;;;;;11.11;81.12;98239.34;107515;1253;65698;-37
2023/04/12 10:15:35;;;;;;;2.40;2.20;;;;;;;11.06;81.08;98238.41;107426;1253;73764;-37
2023/04/12 10:18:08;;;;;;;3.20;2.40;;;;;;;11.04;81.44;98240.36;107473;1253;61118;-37
2023/04/12 10:20:38;;;;;;;3.60;2.70;;;;;;;11.04;81.86;98240.66;107490;1253;61520;-37
2023/04/12 10:23:06;;;;;;;3.50;2.70;;;;;;;11.05;81.95;98242.76;107422;1253;73520;-37
2023/04/12 10:25:37;;;;;;;3.30;2.70;;;;;;;11.11;81.67;98240.44;107516;1254;68800;-37
2023/04/12 10:28:18;;;;;;;4.10;2.80;;;;;;;11.12;81.65;98239.66;107463;1254;73883;-37
2023/04/12 10:30:56;;;;;;;5.40;3.20;;;;;;;11.11;81.49;98242.20;107356;1253;61603;-37
2023/04/12 10:33:32;;;;;;;4.00;2.70;;;;;;;11.10;81.55;98242.67;107387;1253;61034;-37
2023/04/12 10:36:11;;;;;;;3.70;2.80;;;;;;;11.12;81.51;98242.29;107431;1253;74704;-37
2023/04/12 10:39:08;;;;;;;3.70;2.90;;;;;;;11.11;81.50;98238.18;107419;1254;69215;-37
2023/04/12 10:41:36;;;;;;;4.90;2.80;;;;;;;11.09;81.89;98237.88;107346;1253;73903;-37
2023/04/12 10:44:27;;;;;;;4.30;2.80;;;;;;;11.16;81.58;98239.17;107415;1253;61556;-37
2023/04/12 10:46:56;;;;;;;5.90;3.00;;;;;;;11.20;81.59;98237.63;107431;1253;60889;-37
2023/04/12 10:49:25;;;;;;;4.60;2.90;;;;;;;11.23;81.78;98240.72;107473;1253;75019;-37
2023/04/12 10:52:00;;;;;;;4.20;3.00;;;;;;;11.29;81.84;98241.41;107534;1259;69109;-37
2023/04/12 10:54:30;;;;;;;5.70;2.80;;;;;;;11.38;81.42;98244.72;107445;1253;73777;-37
2023/04/12 10:56:59;;;;;;;;;;;;;;;11.46;81.24;98240.75;107515;1253;62294;-37
2023/04/12 10:59:55;;;;;;;4.90;2.80;;;;;;;11.44;80.84;98243.00;107483;1253;61004;-37
2023/04/12 11:02:24;;;;;;;3.50;2.80;;;;;;;11.42;80.92;98241.91;107488;1253;73505;-37
2023/04/12 11:05:09;;;;;;;5.30;2.70;;;;;;;11.45;80.43;98243.30;107463;1259;69136;-37
2023/04/12 11:08:21;;;;;;;3.70;3.20;;;;;;;11.46;80.33;98240.36;107090;1260;73882;-37
2023/04/12 11:11:17;;;;;;;4.50;3.30;;;;;;;11.38;80.14;98239.67;107399;1253;61381;-37
2023/04/12 11:13:47;;;;;;;6.50;2.90;;;;;;;11.28;80.39;98237.59;107438;1253;60338;-37
2023/04/12 11:16:21;;;;;;;4.30;3.10;;;;;;;11.29;80.74;98240.09;107478;1253;75082;-36
2023/04/12 11:18:53;;;;;;;5.70;3.60;;;;;;;11.32;80.73;98237.52;107480;1254;68920;-38
2023/04/12 11:21:21;;;;;;;3.30;3.00;;;;;;;11.30;80.67;98238.84;107356;1253;73801;-37
2023/04/12 11:23:51;;;;;;;5.40;3.70;;;;;;;11.28;80.91;98237.92;107395;1253;63211;-37
2023/04/12 11:26:20;;;;;;;;;;;;;;;11.30;80.67;98234.13;107463;1253;62287;-37
2023/04/12 11:28:52;;;;;;;5.20;3.80;;;;;;;11.18;80.74;98224.84;107489;1254;74697;-38
2023/04/12 11:31:21;;;;;;;5.10;3.40;;;;;;;11.16;81.01;98229.96;107485;1253;68955;-38
2023/04/12 11:33:50;;;;;;;5.80;3.50;;;;;;;11.14;81.24;98229.72;107528;1253;72696;-37
2023/04/12 11:36:20;;;;;;;4.80;3.30;;;;;;;11.17;81.34;98230.20;107502;1254;61749;-37
2023/04/12 11:38:49;;;;;;;4.60;3.60;;;;;;;11.17;81.33;98228.72;107496;1253;61662;-38
2023/04/12 11:41:17;;;;;;;5.50;3.60;;;;;;;11.14;81.50;98231.58;107526;1254;75009;-38
2023/04/12 11:43:46;;;;;;;5.30;3.20;;;;;;;11.12;81.49;98229.58;107476;1253;66906;-37
2023/04/12 11:46:15;;;;;;;5.70;3.40;;;;;;;11.18;81.28;98229.87;107383;1253;73884;-37
2023/04/12 11:48:44;;;;;;;6.60;4.10;;;;;;;11.20;81.19;98230.73;107388;1253;61554;-38
2023/04/12 11:51:20;;;;;;;6.30;4.80;;;;;;;11.19;81.54;98226.46;107420;1253;61562;-40
2023/04/12 11:53:53;;;;;;;5.90;4.10;;;;;;;11.16;81.62;98228.41;107528;1254;73569;-37